createdAt,value
2018-04-15T00:00:33.101Z,100384.80
2018-04-15T00:03:00.594Z,100381.70
2018-04-15T00:05:28.093Z,100378.51
2018-04-15T00:07:55.585Z,100380.83
2018-04-15T00:10:23.110Z,100380.83
2018-04-15T00:12:50.585Z,100379.35
2018-04-15T00:15:18.065Z,100373.67
2018-04-15T00:17:45.589Z,100366.89
2018-04-15T00:20:13.066Z,100368.13
2018-04-15T00:22:40.885Z,100364.59
2018-04-15T00:25:08.401Z,100360.27
2018-04-15T00:27:35.885Z,100363.90
2018-04-15T00:30:03.397Z,100360.62
2018-04-15T00:32:30.885Z,100359.98
2018-04-15T00:34:58.576Z,100355.44
2018-04-15T00:37:26.056Z,100358.53
2018-04-15T00:39:53.539Z,100356.52
2018-04-15T00:42:21.041Z,100353.43
2018-04-15T00:44:48.529Z,100349.34
2018-04-15T00:47:16.061Z,100350.28
2018-04-15T00:49:43.553Z,100349.55
2018-04-15T00:52:11.041Z,100348.25
2018-04-15T00:54:38.570Z,100345.32
2018-04-15T00:57:06.053Z,100347.78
2018-04-15T00:59:33.569Z,100337.44
2018-04-15T01:02:01.101Z,100338.47
2018-04-15T01:04:28.577Z,100340.37
2018-04-15T01:06:56.097Z,100335.99
2018-04-15T01:09:23.676Z,100334.63
2018-04-15T01:11:51.368Z,100335.14
2018-04-15T01:14:18.849Z,100340.29
2018-04-15T01:16:46.385Z,100335.11
2018-04-15T01:19:13.884Z,100325.78
2018-04-15T01:21:41.383Z,100330.52
2018-04-15T01:24:08.897Z,100329.41
2018-04-15T01:26:36.409Z,100324.63
2018-04-15T01:29:03.896Z,100323.23
2018-04-15T01:31:31.401Z,100325.94
2018-04-15T01:33:58.885Z,100324.03
2018-04-15T01:36:26.837Z,100321.55
2018-04-15T01:38:54.322Z,100321.09
2018-04-15T01:41:21.873Z,100319.20
2018-04-15T01:43:49.373Z,100322.40
2018-04-15T01:46:16.868Z,100317.78
2018-04-15T01:48:44.573Z,100320.70
2018-04-15T01:51:12.073Z,100315.83
2018-04-15T01:53:39.552Z,100316.80
2018-04-15T01:56:07.134Z,100318.42
2018-04-15T01:58:34.634Z,100317.16
2018-04-15T02:01:02.353Z,100318.87
2018-04-15T02:03:29.833Z,100315.13
2018-04-15T02:05:57.313Z,100316.96
2018-04-15T02:08:24.824Z,100315.41
2018-04-15T02:10:52.305Z,100320.95
2018-04-15T02:13:19.942Z,100318.09
2018-04-15T02:15:47.417Z,100313.56
2018-04-15T02:18:14.910Z,100315.14
2018-04-15T02:20:42.416Z,100314.84
2018-04-15T02:23:09.896Z,100316.85
2018-04-15T02:25:37.770Z,100310.92
2018-04-15T02:28:05.248Z,100305.12
2018-04-15T02:30:32.729Z,100303.88
2018-04-15T02:33:00.245Z,100299.68
2018-04-15T02:35:27.722Z,100296.03
2018-04-15T02:37:55.241Z,100296.62
2018-04-15T02:40:22.725Z,100300.69
2018-04-15T02:42:50.433Z,100297.12
2018-04-15T02:45:17.940Z,100306.39
2018-04-15T02:47:45.416Z,100305.95
2018-04-15T02:50:12.973Z,100303.86
2018-04-15T02:52:40.462Z,100305.93
2018-04-15T02:55:07.971Z,100312.84
2018-04-15T02:57:35.477Z,100321.04
2018-04-15T03:00:02.973Z,100332.11
2018-04-15T03:02:30.760Z,100339.34
2018-04-15T03:04:58.245Z,100348.83
2018-04-15T03:07:25.729Z,100349.22
2018-04-15T03:09:53.241Z,100354.52
2018-04-15T03:12:20.740Z,100358.97
2018-04-15T03:14:48.396Z,100360.95
2018-04-15T03:17:15.881Z,100359.87
2018-04-15T03:19:43.364Z,100349.44
2018-04-15T03:22:10.869Z,100352.22
2018-04-15T03:24:38.363Z,100345.22
2018-04-15T03:27:05.889Z,100345.19
2018-04-15T03:29:33.388Z,100341.63
2018-04-15T03:32:00.874Z,100340.08
2018-04-15T03:34:28.377Z,100337.84
2018-04-15T03:36:55.877Z,100339.81
2018-04-15T03:39:23.597Z,100341.44
2018-04-15T03:41:51.112Z,100339.03
2018-04-15T03:44:18.593Z,100338.54
2018-04-15T03:46:46.093Z,100342.33
2018-04-15T03:49:13.581Z,100330.64
2018-04-15T03:51:41.250Z,100326.98
2018-04-15T03:54:08.737Z,100326.58
2018-04-15T03:56:36.243Z,100329.71
2018-04-15T03:59:03.745Z,100318.86
2018-04-15T04:01:31.244Z,100324.42
2018-04-15T04:03:58.765Z,100317.73
2018-04-15T04:06:26.245Z,100320.84
2018-04-15T04:08:53.740Z,100316.66
2018-04-15T04:11:21.281Z,100321.65
2018-04-15T04:13:48.767Z,100316.96
2018-04-15T04:16:16.307Z,100313.21
2018-04-15T04:18:55.625Z,100317.42
2018-04-15T04:21:35.259Z,100316.72
2018-04-15T04:24:14.625Z,100321.00
2018-04-15T04:26:42.389Z,100327.41
2018-04-15T04:29:09.891Z,100323.67
2018-04-15T04:31:37.388Z,100323.55
2018-04-15T04:34:04.895Z,100328.11
2018-04-15T04:36:32.388Z,100324.25
2018-04-15T04:39:00.252Z,100326.80
2018-04-15T04:41:27.732Z,100319.97
2018-04-15T04:43:55.317Z,100312.27
2018-04-15T04:46:22.828Z,100314.73
2018-04-15T04:48:50.316Z,100306.94
2018-04-15T04:51:17.877Z,100306.95
2018-04-15T04:53:45.378Z,100310.15
2018-04-15T04:56:12.859Z,100304.89
2018-04-15T04:58:40.368Z,100301.67
2018-04-15T05:01:07.844Z,100295.50
2018-04-15T05:03:35.392Z,100296.44
2018-04-15T05:06:02.873Z,100290.36
2018-04-15T05:08:30.352Z,100292.80
2018-04-15T05:10:57.855Z,100286.30
2018-04-15T05:13:25.373Z,100280.96
2018-04-15T05:15:53.005Z,100284.65
2018-04-15T05:18:20.484Z,100270.45
2018-04-15T05:20:53.921Z,100264.84
2018-04-15T05:23:21.425Z,100257.30
2018-04-15T05:25:48.918Z,100259.97
2018-04-15T05:28:16.421Z,100260.23
2018-04-15T05:30:43.905Z,100263.48
2018-04-15T05:33:11.553Z,100261.47
2018-04-15T05:35:39.142Z,100262.44
2018-04-15T05:38:06.801Z,100258.06
2018-04-15T05:40:34.341Z,100262.44
2018-04-15T05:43:01.868Z,100254.65
2018-04-15T05:45:29.408Z,100244.98
2018-04-15T05:47:56.910Z,100241.80
2018-04-15T05:50:24.389Z,100245.53
2018-04-15T05:52:51.888Z,100235.39
2018-04-15T05:55:19.380Z,100237.84
2018-04-15T05:57:47.058Z,100238.28
2018-04-15T06:00:14.545Z,100235.17
2018-04-15T06:02:42.047Z,100231.14
2018-04-15T06:05:09.553Z,100228.02
2018-04-15T06:07:37.033Z,100223.66
2018-04-15T06:10:04.557Z,100221.00
2018-04-15T06:12:32.045Z,100217.00
2018-04-15T06:14:59.557Z,100211.29
2018-04-15T06:17:27.060Z,100213.80
2018-04-15T06:19:54.618Z,100205.94
2018-04-15T06:22:22.129Z,100213.43
2018-04-15T06:24:49.620Z,100216.09
2018-04-15T06:27:17.116Z,100209.07
2018-04-15T06:29:44.619Z,100216.61
2018-04-15T06:32:12.107Z,100219.81
2018-04-15T06:34:39.635Z,100214.20
2018-04-15T06:37:07.137Z,100213.55
2018-04-15T06:39:34.618Z,100213.36
2018-04-15T06:42:02.125Z,100213.36
2018-04-15T06:44:29.605Z,100215.15
2018-04-15T06:46:57.127Z,100216.66
2018-04-15T06:49:24.665Z,100216.80
2018-04-15T06:51:52.161Z,100220.47
2018-04-15T06:54:19.668Z,100224.55
2018-04-15T06:56:47.161Z,100223.49
2018-04-15T06:59:14.691Z,100223.41
2018-04-15T07:01:42.172Z,100220.64
2018-04-15T07:04:09.653Z,100219.81
2018-04-15T07:06:37.159Z,100216.87
2018-04-15T07:09:07.285Z,100216.63
2018-04-15T07:11:34.805Z,100214.41
2018-04-15T07:14:02.301Z,100207.26
2018-04-15T07:16:29.852Z,100214.16
2018-04-15T07:18:57.361Z,100214.78
2018-04-15T07:21:24.857Z,100212.39
2018-04-15T07:23:52.725Z,100202.59
2018-04-15T07:26:20.209Z,100209.87
2018-04-15T07:28:47.694Z,100208.77
2018-04-15T07:31:15.221Z,100209.41
2018-04-15T07:33:42.739Z,100206.24
2018-04-15T07:36:10.445Z,100198.22
2018-04-15T07:38:37.925Z,100192.43
2018-04-15T07:41:05.411Z,100197.82
2018-04-15T07:43:32.930Z,100190.19
2018-04-15T07:46:00.456Z,100184.36
2018-04-15T07:48:28.218Z,100183.74
2018-04-15T07:50:55.698Z,100176.61
2018-04-15T07:53:23.193Z,100178.51
2018-04-15T07:55:50.694Z,100175.53
2018-04-15T07:58:18.177Z,100169.91
2018-04-15T08:00:45.881Z,100175.27
2018-04-15T08:03:13.363Z,100171.20
2018-04-15T08:05:40.860Z,100173.50
2018-04-15T08:08:08.371Z,100170.99
2018-04-15T08:10:35.848Z,100170.02
2018-04-15T08:13:03.733Z,100157.47
2018-04-15T08:15:31.220Z,100163.86
2018-04-15T08:17:58.727Z,100158.30
2018-04-15T08:20:26.265Z,100161.22
2018-04-15T08:22:53.748Z,100161.13
2018-04-15T08:25:21.500Z,100159.62
2018-04-15T08:27:49.079Z,100157.28
2018-04-15T08:30:16.605Z,100153.77
2018-04-15T08:32:44.113Z,100153.00
2018-04-15T08:35:11.597Z,100152.50
2018-04-15T08:37:39.110Z,100152.46
2018-04-15T08:40:06.593Z,100153.45
2018-04-15T08:42:34.077Z,100147.56
2018-04-15T08:45:01.585Z,100149.20
2018-04-15T08:47:29.069Z,100145.56
2018-04-15T08:49:56.693Z,100148.84
2018-04-15T08:52:24.187Z,100140.02
2018-04-15T08:54:51.677Z,100140.15
2018-04-15T08:57:19.201Z,100133.17
2018-04-15T08:59:46.690Z,100129.88
2018-04-15T09:02:14.353Z,100133.22
2018-04-15T09:04:41.853Z,100125.06
2018-04-15T09:07:09.332Z,100126.23
2018-04-15T09:09:36.842Z,100123.76
2018-04-15T09:12:04.317Z,100122.45
2018-04-15T09:14:31.985Z,100112.36
2018-04-15T09:16:59.461Z,100118.55
2018-04-15T09:19:26.957Z,100118.23
2018-04-15T09:21:54.937Z,100112.63
2018-04-15T09:24:22.430Z,100107.21
2018-04-15T09:26:50.114Z,100113.16
2018-04-15T09:29:17.620Z,100103.99
2018-04-15T09:31:45.121Z,100110.09
2018-04-15T09:34:12.665Z,100102.70
2018-04-15T09:36:40.181Z,100100.99
2018-04-15T09:39:07.749Z,100094.66
2018-04-15T09:41:35.228Z,100096.04
2018-04-15T09:44:02.705Z,100096.30
2018-04-15T09:46:30.245Z,100088.78
2018-04-15T09:48:57.730Z,100087.23
2018-04-15T09:51:25.269Z,100082.00
2018-04-15T09:53:52.846Z,100084.72
2018-04-15T09:56:20.347Z,100081.88
2018-04-15T09:58:47.881Z,100087.08
2018-04-15T10:01:17.161Z,100086.11
2018-04-15T10:03:44.769Z,100086.53
2018-04-15T10:06:12.257Z,100083.46
2018-04-15T10:08:40.633Z,100089.89
2018-04-15T10:11:08.145Z,100087.90
2018-04-15T10:13:35.637Z,100086.45
2018-04-15T10:16:03.466Z,100087.40
2018-04-15T10:18:30.978Z,100082.02
2018-04-15T10:20:58.485Z,100081.91
2018-04-15T10:23:25.997Z,100080.67
2018-04-15T10:25:53.474Z,100077.47
2018-04-15T10:28:21.339Z,100074.70
2018-04-15T10:30:48.821Z,100068.48
2018-04-15T10:33:16.325Z,100062.88
2018-04-15T10:35:43.838Z,100062.56
2018-04-15T10:38:11.338Z,100067.41
2018-04-15T10:40:38.882Z,100061.19
2018-04-15T10:43:06.399Z,100056.70
2018-04-15T10:45:33.892Z,100060.44
2018-04-15T10:48:01.427Z,100064.59
2018-04-15T10:50:28.925Z,100054.17
2018-04-15T10:52:56.636Z,100060.84
2018-04-15T10:55:24.117Z,100061.50
2018-04-15T10:57:51.643Z,100057.55
2018-04-15T11:00:19.195Z,100054.75
2018-04-15T11:02:46.722Z,100055.08
2018-04-15T11:05:14.493Z,100045.09
2018-04-15T11:07:41.985Z,100043.97
2018-04-15T11:10:09.573Z,100050.58
2018-04-15T11:12:37.689Z,100046.55
2018-04-15T11:15:05.178Z,100045.17
2018-04-15T11:17:32.701Z,100035.68
2018-04-15T11:20:00.223Z,100038.36
2018-04-15T11:22:27.707Z,100032.05
2018-04-15T11:24:55.214Z,100020.44
2018-04-15T11:27:22.709Z,100025.98
2018-04-15T11:29:50.325Z,100021.13
2018-04-15T11:32:17.869Z,100020.48
2018-04-15T11:34:45.421Z,100014.73
2018-04-15T11:37:12.934Z,100011.99
2018-04-15T11:39:40.425Z,100003.12
2018-04-15T11:42:08.112Z,100003.69
2018-04-15T11:44:35.593Z,100002.55
2018-04-15T11:47:03.106Z,99999.22
2018-04-15T11:49:30.605Z,99991.31
2018-04-15T11:51:58.114Z,99991.95
2018-04-15T11:54:25.637Z,99994.82
2018-04-15T11:56:53.114Z,99985.38
2018-04-15T11:59:20.606Z,99977.84
2018-04-15T12:01:48.133Z,99982.14
2018-04-15T12:04:15.618Z,99973.09
2018-04-15T12:06:43.161Z,99970.30
2018-04-15T12:09:10.650Z,99969.08
2018-04-15T12:11:38.129Z,99961.92
2018-04-15T12:14:05.637Z,99960.07
2018-04-15T12:16:33.117Z,99945.87
2018-04-15T12:19:00.645Z,99950.13
2018-04-15T12:21:28.141Z,99952.99
2018-04-15T12:23:55.628Z,99947.53
2018-04-15T12:26:23.136Z,99940.16
2018-04-15T12:28:50.637Z,99935.08
2018-04-15T12:31:18.189Z,99935.66
2018-04-15T12:33:45.693Z,99933.91
2018-04-15T12:36:13.205Z,99932.72
2018-04-15T12:38:40.707Z,99925.14
2018-04-15T12:41:08.209Z,99928.95
2018-04-15T12:43:35.722Z,99924.16
2018-04-15T12:46:03.197Z,99914.81
2018-04-15T12:48:30.669Z,99908.65
2018-04-15T12:50:58.173Z,99909.59
2018-04-15T12:53:25.653Z,99908.70
2018-04-15T12:55:53.179Z,99909.41
2018-04-15T12:58:20.667Z,99901.16
2018-04-15T13:00:48.157Z,99900.30
2018-04-15T13:03:15.657Z,99898.59
2018-04-15T13:05:43.146Z,99891.60
2018-04-15T13:08:10.865Z,99878.58
2018-04-15T13:10:38.349Z,99881.94
2018-04-15T13:13:05.821Z,99878.61
2018-04-15T13:15:33.338Z,99875.98
2018-04-15T13:18:00.821Z,99878.34
2018-04-15T13:20:30.157Z,99866.39
2018-04-15T13:22:57.639Z,99859.73
2018-04-15T13:25:25.149Z,99856.28
2018-04-15T13:27:52.674Z,99856.25
2018-04-15T13:30:20.152Z,99850.09
2018-04-15T13:32:47.779Z,99851.20
2018-04-15T13:35:15.257Z,99843.02
2018-04-15T13:37:42.737Z,99845.42
2018-04-15T13:40:10.239Z,99845.48
2018-04-15T13:42:38.199Z,99842.54
2018-04-15T13:45:05.976Z,99841.28
2018-04-15T13:47:33.461Z,99829.47
2018-04-15T13:50:00.961Z,99834.84
2018-04-15T13:52:28.473Z,99829.88
2018-04-15T13:54:55.949Z,99821.84
2018-04-15T13:57:23.622Z,99823.13
2018-04-15T13:59:51.107Z,99815.18
2018-04-15T14:02:18.592Z,99811.09
2018-04-15T14:04:46.199Z,99800.10
2018-04-15T14:07:13.719Z,99801.25
2018-04-15T14:09:41.387Z,99797.72
2018-04-15T14:12:08.899Z,99789.06
2018-04-15T14:14:36.589Z,99791.03
2018-04-15T14:17:04.130Z,99793.23
2018-04-15T14:19:31.615Z,99786.77
2018-04-15T14:21:59.135Z,99788.63
2018-04-15T14:24:26.633Z,99784.84
2018-04-15T14:26:54.117Z,99783.19
2018-04-15T14:29:21.661Z,99787.00
2018-04-15T14:31:49.132Z,99781.34
2018-04-15T14:34:16.644Z,99791.67
2018-04-15T14:36:44.119Z,99797.28
2018-04-15T14:39:11.593Z,99792.81
2018-04-15T14:41:39.099Z,99786.45
2018-04-15T14:44:06.582Z,99793.05
2018-04-15T14:46:34.229Z,99790.16
2018-04-15T14:49:01.737Z,99787.20
2018-04-15T14:51:29.241Z,99782.17
2018-04-15T14:53:56.753Z,99784.89
2018-04-15T14:56:24.229Z,99775.41
2018-04-15T14:58:51.753Z,99775.48
2018-04-15T15:01:19.245Z,99772.66
2018-04-15T15:03:46.737Z,99771.53
2018-04-15T15:06:14.245Z,99764.03
2018-04-15T15:08:41.720Z,99766.81
2018-04-15T15:11:09.546Z,99759.12
2018-04-15T15:13:37.024Z,99758.95
2018-04-15T15:16:04.510Z,99752.92
2018-04-15T15:18:32.026Z,99760.28
2018-04-15T15:20:59.548Z,99756.66
2018-04-15T15:23:27.073Z,99752.06
2018-04-15T15:25:54.569Z,99750.69
2018-04-15T15:28:22.078Z,99751.78
2018-04-15T15:30:49.602Z,99745.75
2018-04-15T15:33:17.105Z,99752.14
2018-04-15T15:35:44.629Z,99748.02
2018-04-15T15:38:12.115Z,99748.50
2018-04-15T15:40:39.628Z,99751.52
2018-04-15T15:43:07.138Z,99750.34
2018-04-15T15:45:34.625Z,99754.64
2018-04-15T15:48:02.316Z,99757.52
2018-04-15T15:50:29.797Z,99759.27
2018-04-15T15:52:57.317Z,99755.81
2018-04-15T15:55:24.841Z,99758.72
2018-04-15T15:57:52.341Z,99757.28
2018-04-15T16:00:19.857Z,99758.39
2018-04-15T16:02:47.354Z,99756.69
2018-04-15T16:05:14.829Z,99755.89
2018-04-15T16:07:42.326Z,99754.42
2018-04-15T16:10:09.906Z,99757.11
2018-04-15T16:12:37.618Z,99752.25
2018-04-15T16:15:05.117Z,99758.33
2018-04-15T16:17:32.602Z,99754.16
2018-04-15T16:20:00.144Z,99758.31
2018-04-15T16:22:27.617Z,99751.33
2018-04-15T16:24:55.169Z,99757.70
2018-04-15T16:27:22.653Z,99756.50
2018-04-15T16:29:50.130Z,99759.56
2018-04-15T16:32:17.634Z,99757.66
2018-04-15T16:34:45.121Z,99749.78
2018-04-15T16:37:13.579Z,99754.48
2018-04-15T16:39:41.062Z,99758.35
2018-04-15T16:42:08.545Z,99757.13
2018-04-15T16:44:36.053Z,99756.57
2018-04-15T16:47:03.538Z,99752.58
2018-04-15T16:49:31.320Z,99754.23
2018-04-15T16:51:58.797Z,99756.08
2018-04-15T16:54:26.281Z,99757.53
2018-04-15T16:56:53.801Z,99760.59
2018-04-15T16:59:21.282Z,99758.23
2018-04-15T17:01:48.895Z,99760.81
2018-04-15T17:04:16.535Z,99761.06
2018-04-15T17:06:44.009Z,99767.93
2018-04-15T17:09:11.543Z,99759.46
2018-04-15T17:11:39.047Z,99761.20
2018-04-15T17:14:06.714Z,99769.73
2018-04-15T17:16:34.403Z,99766.64
2018-04-15T17:19:01.886Z,99771.58
2018-04-15T17:21:29.437Z,99770.94
2018-04-15T17:23:56.973Z,99769.47
2018-04-15T17:26:24.683Z,99772.59
2018-04-15T17:28:52.167Z,99772.55
2018-04-15T17:31:19.658Z,99770.96
2018-04-15T17:33:47.169Z,99772.66
2018-04-15T17:36:14.650Z,99768.97
2018-04-15T17:38:42.189Z,99767.13
2018-04-15T17:41:09.666Z,99770.32
2018-04-15T17:43:37.156Z,99773.33
2018-04-15T17:46:04.677Z,99772.06
2018-04-15T17:48:33.178Z,99771.08
2018-04-15T17:51:00.726Z,99775.92
2018-04-15T17:53:28.214Z,99775.48
2018-04-15T17:55:55.812Z,99771.50
2018-04-15T17:58:23.456Z,99774.44
2018-04-15T18:00:50.969Z,99774.37
2018-04-15T18:03:18.513Z,99778.97
2018-04-15T18:05:46.005Z,99791.57
2018-04-15T18:08:13.498Z,99789.48
2018-04-15T18:10:41.014Z,99788.64
2018-04-15T18:13:08.505Z,99783.88
2018-04-15T18:15:36.202Z,99793.37
2018-04-15T18:18:03.714Z,99799.10
2018-04-15T18:20:31.206Z,99804.88
2018-04-15T18:22:58.722Z,99810.55
2018-04-15T18:25:26.979Z,99813.90
2018-04-15T18:27:54.509Z,99815.99
2018-04-15T18:30:22.032Z,99818.09
2018-04-15T18:32:49.533Z,99819.59
2018-04-15T18:35:17.119Z,99817.55
2018-04-15T18:37:44.623Z,99822.93
2018-04-15T18:40:12.378Z,99830.12
2018-04-15T18:42:40.061Z,99834.16
2018-04-15T18:45:07.639Z,99837.27
2018-04-15T18:47:35.277Z,99849.46
2018-04-15T18:50:02.838Z,99855.33
2018-04-15T18:52:31.069Z,99867.73
2018-04-15T18:54:58.761Z,99880.30
2018-04-15T18:57:26.729Z,99877.44
2018-04-15T18:59:54.367Z,99878.04
2018-04-15T19:02:21.970Z,99879.97
2018-04-15T19:04:49.947Z,99875.34
2018-04-15T19:07:17.636Z,99873.03
2018-04-15T19:09:45.277Z,99877.04
2018-04-15T19:12:13.652Z,99881.86
2018-04-15T19:14:41.889Z,99878.67
2018-04-15T19:17:10.365Z,99877.50
2018-04-15T19:19:38.371Z,99881.77
2018-04-15T19:22:06.854Z,99875.31
2018-04-15T19:24:35.324Z,99876.98
2018-04-15T19:27:03.737Z,99870.00
2018-04-15T19:29:32.213Z,99875.23
2018-04-15T19:32:00.420Z,99874.61
2018-04-15T19:34:28.508Z,99869.48
2018-04-15T19:36:56.795Z,99871.41
2018-04-15T19:39:25.877Z,99875.36
2018-04-15T19:41:54.209Z,99873.13
2018-04-15T19:44:22.557Z,99875.62
2018-04-15T19:46:50.778Z,99880.08
2018-04-15T19:49:19.162Z,99882.81
2018-04-15T19:51:47.780Z,99880.75
2018-04-15T19:54:16.244Z,99882.66
2018-04-15T19:56:44.724Z,99878.60
2018-04-15T19:59:12.512Z,99878.41
2018-04-15T20:01:41.221Z,99879.34
2018-04-15T20:04:09.279Z,99878.59
2018-04-15T20:06:37.853Z,99882.19
2018-04-15T20:09:06.270Z,99878.72
2018-04-15T20:11:34.778Z,99881.80
2018-04-15T20:14:02.410Z,99876.77
2018-04-15T20:16:30.127Z,99875.97
2018-04-15T20:18:58.630Z,99882.48
2018-04-15T20:21:26.378Z,99876.26
2018-04-15T20:23:54.360Z,99872.23
2018-04-15T20:26:22.154Z,99877.11
2018-04-15T20:28:49.688Z,99875.81
2018-04-15T20:31:17.475Z,99874.23
2018-04-15T20:33:45.155Z,99876.73
2018-04-15T20:36:12.669Z,99882.97
2018-04-15T20:38:40.182Z,99883.58
2018-04-15T20:41:07.669Z,99888.70
2018-04-15T20:43:35.641Z,99890.53
2018-04-15T20:46:03.124Z,99891.01
2018-04-15T20:48:30.615Z,99896.23
2018-04-15T20:50:58.144Z,99897.67
2018-04-15T20:53:25.637Z,99901.02
2018-04-15T20:55:53.405Z,99887.22
2018-04-15T20:58:20.897Z,99890.92
2018-04-15T21:00:48.414Z,99892.75
2018-04-15T21:03:15.918Z,99893.10
2018-04-15T21:05:43.458Z,99900.94
2018-04-15T21:08:11.157Z,99893.54
2018-04-15T21:10:38.638Z,99896.96
2018-04-15T21:13:06.119Z,99906.24
2018-04-15T21:15:33.646Z,99906.11
2018-04-15T21:18:01.121Z,99906.72
2018-04-15T21:20:28.653Z,99905.42
2018-04-15T21:22:56.133Z,99904.94
2018-04-15T21:25:23.648Z,99907.82
2018-04-15T21:27:51.154Z,99909.44
2018-04-15T21:30:18.629Z,99911.41
2018-04-15T21:32:46.293Z,99907.98
2018-04-15T21:35:13.789Z,99912.89
2018-04-15T21:37:41.265Z,99913.84
2018-04-15T21:40:08.795Z,99914.51
2018-04-15T21:42:36.277Z,99911.88
2018-04-15T21:45:03.925Z,99916.14
2018-04-15T21:47:31.405Z,99916.09
2018-04-15T21:49:58.885Z,99915.77
2018-04-15T21:52:26.389Z,99911.85
2018-04-15T21:54:53.865Z,99922.19
2018-04-15T21:57:21.565Z,99920.78
2018-04-15T21:59:49.066Z,99921.14
2018-04-15T22:02:16.547Z,99915.87
2018-04-15T22:04:44.076Z,99920.09
2018-04-15T22:07:11.577Z,99912.89
2018-04-15T22:09:39.101Z,99913.98
2018-04-15T22:12:15.204Z,99918.08
2018-04-15T22:14:42.742Z,99911.21
2018-04-15T22:17:10.229Z,99912.63
2018-04-15T22:19:37.710Z,99914.53
2018-04-15T22:22:05.213Z,99913.45
2018-04-15T22:24:32.706Z,99917.39
2018-04-15T22:27:00.305Z,99914.91
2018-04-15T22:29:27.804Z,99904.61
2018-04-15T22:31:55.280Z,99907.27
2018-04-15T22:34:22.805Z,99905.92
2018-04-15T22:36:50.286Z,99906.31
2018-04-15T22:39:17.980Z,99897.89
2018-04-15T22:41:45.473Z,99884.73
2018-04-15T22:44:12.948Z,99888.97
2018-04-15T22:46:40.464Z,99891.83
2018-04-15T22:49:13.633Z,99893.56
2018-04-15T22:51:41.419Z,99899.73
2018-04-15T22:54:08.894Z,99893.79
2018-04-15T22:56:42.171Z,99887.66
2018-04-15T22:59:09.649Z,99881.53
2018-04-15T23:01:37.124Z,99886.63
2018-04-15T23:04:04.625Z,99888.73
2018-04-15T23:06:32.101Z,99891.38
2018-04-15T23:08:59.901Z,99885.06
2018-04-15T23:11:27.417Z,99882.38
2018-04-15T23:13:54.896Z,99881.16
2018-04-15T23:16:22.412Z,99880.56
2018-04-15T23:18:49.888Z,99876.65
2018-04-15T23:21:17.484Z,99874.19
2018-04-15T23:23:44.974Z,99874.44
2018-04-15T23:26:12.457Z,99867.88
2018-04-15T23:28:39.989Z,99873.52
2018-04-15T23:31:07.472Z,99868.33
2018-04-15T23:33:35.321Z,99872.59
2018-04-15T23:36:02.825Z,99875.88
2018-04-15T23:38:30.297Z,99874.77
2018-04-15T23:40:57.801Z,99873.89
2018-04-15T23:43:25.281Z,99875.80
2018-04-15T23:45:52.973Z,99878.86
2018-04-15T23:48:20.453Z,99893.32
2018-04-15T23:50:47.938Z,99901.08
2018-04-15T23:53:15.448Z,99909.59
2018-04-15T23:55:42.933Z,99906.10
2018-04-15T23:58:10.732Z,99905.30
